Moab, UT

5:55 AM MDT on August 21, 2014 (GMT -0600)
Canon Vista | Change Station
CLOSE
Current Station
Personal Weather Station
Location: Moab, UT
Elevation: 4183 ft
Nearby Weather Stations

Elev 4183 ft 38.56 °N, 109.53 °W | Updated 4 seconds ago

Clear
Clear
57.7 °F
Feels Like 57.7 °F
N
0.0
Wind Variable Wind from SE
Gusts 0.0 mph

Today
High -- | Low -- °F
--% Chance of Precip.
Yesterday
High -- | Low -- °F
Precip. -- in
6:37 AM 8:03 PM
Waning Crescent, 15% visible
Pressure 29.95 in
Visibility 10.0 miles
Clouds Clear
Dew Point 54 °F
Humidity 89%
Rainfall 0.00 in
Snow Depth 0 in
UV 0 out of 12
Pollen 8.90 out of 12
Air Quality Not available.
Flu Activity Not available.
METAR KCNY 211053Z AUTO 27003KT 10SM CLR 14/13 A3008 RMK AO2 SLP142 T01440128

More Conditions Fewer Conditions

Pressure 29.95 in
Visibility 10.0 miles
Clouds Clear
Dew Point 54 °F
Humidity 89%
Rainfall 0.00 in
Snow Depth 0 in
UV 0 out of 12
Pollen 8.90 out of 12
Air Quality Not available.
Flu Activity Not available.
METAR KCNY 211053Z AUTO 27003KT 10SM CLR 14/13 A3008 RMK AO2 SLP142 T01440128

More Conditions Fewer Conditions

10-Day Weather Forecast

Almanac

Astronomy

Aug. 21, 2014 Rise Set
Actual Time 6:37 AM MDT 8:03 PM MDT
Civil Twilight 6:09 AM MDT 8:31 PM MDT
Nautical Twilight 5:36 AM MDT 9:05 PM MDT
Astronomical Twilight 5:00 AM MDT 9:40 PM MDT
Moon 3:11 AM MDT 5:33 PM MDT
Length of Visible Light 14h 22m
Length of Day
13h 26m
Tomorrow will be 2m 17s shorter.
Waning Crescent, 15% of the Moon is Illuminated
Today
Waning Crescent
Aug 25
New
Sep 2
First Quarter
Sep 8
Full
Sep 15
Last Quarter

Today's Extremes

State Highs State Lows

Community

WunderPhotos

Upload Photos

1,745,864 photos uploaded!

Nearby

Snow Depth

Station Depth Elevation
Lasal Mountain 0 in 9850 ft
Donkey Reservoir 0 in 9800 ft
Buck Flat 0 in 9800 ft
Black Flat-U.M. Creek 0 in 9400 ft
Red Pine Ridge 0 in 9200 ft

Earthquake Activity

City Distance Mag. Time & Date
No recent earthquake activity has been reported nearby.
Minimum magnitude displayed is 2.5.

Coastal Water Temperatures

Place Temperature
No Stations Reporting

Nearby Weather Stations